Time;durP1;ratioP1;P1;durP2;ratioP2;P2;SDS_P1;SDS_P2;PMS_P1;PMS_P2;Temp;Humidity;BMP_temperature;BMP_pressure;BME280_temperature;BME280_humidity;BME280_pressure;Samples;Min_cycle;Max_cycle;Signal;HPM_P1;HPM_P2
2022/01/08 00:02:03;;;;;;;18.40;6.78;;;;;;;-2.14;100.00;99475.56;5069665;28;20044;-74
2022/01/08 00:04:47;;;;;;;16.98;6.72;;;;;;;-2.21;100.00;99463.41;5086544;28;20115;-75
2022/01/08 00:07:31;;;;;;;14.68;6.68;;;;;;;-2.16;100.00;99469.50;5100843;28;20424;-75
2022/01/08 00:10:16;;;;;;;20.33;8.23;;;;;;;-2.13;100.00;99459.31;5086637;28;20071;-75
2022/01/08 00:13:05;;;;;;;20.60;9.23;;;;;;;-2.06;100.00;99466.28;5101053;28;20104;-75
2022/01/08 00:15:49;;;;;;;16.95;8.38;;;;;;;-2.02;100.00;99462.09;5115811;28;20063;-75
2022/01/08 00:18:34;;;;;;;17.45;7.10;;;;;;;-1.93;100.00;99458.00;5086500;28;20050;-75
2022/01/08 00:21:19;;;;;;;15.85;7.03;;;;;;;-1.95;100.00;99461.34;5100592;28;20329;-75
2022/01/08 00:24:04;;;;;;;19.20;8.27;;;;;;;-1.98;100.00;99472.47;5087777;28;20039;-75
2022/01/08 00:26:48;;;;;;;16.77;7.38;;;;;;;-1.92;100.00;99464.88;5119231;28;20435;-75
2022/01/08 00:29:33;;;;;;;19.60;7.60;;;;;;;-2.02;100.00;99457.81;5089885;28;20035;-75
2022/01/08 00:32:17;;;;;;;13.95;6.38;;;;;;;-1.97;100.00;99463.91;5104288;28;20137;-75
2022/01/08 00:35:02;;;;;;;15.07;7.43;;;;;;;-2.01;100.00;99464.69;5104093;28;20036;-75
2022/01/08 00:37:46;;;;;;;16.85;7.63;;;;;;;-2.07;100.00;99461.13;5119328;28;20353;-75
2022/01/08 00:40:31;;;;;;;17.75;7.18;;;;;;;-2.08;100.00;99450.00;5103931;28;20059;-75
2022/01/08 00:43:16;;;;;;;15.88;6.78;;;;;;;-1.98;100.00;99454.50;5104022;28;20049;-75
2022/01/08 00:46:00;;;;;;;14.07;6.97;;;;;;;-2.15;100.00;99440.44;5103902;28;20043;-74
2022/01/08 00:48:44;;;;;;;19.90;8.07;;;;;;;-2.04;100.00;99441.53;5089589;28;20063;-75
2022/01/08 00:51:29;;;;;;;21.58;6.50;;;;;;;-2.07;100.00;99443.19;5089467;28;20048;-75
2022/01/08 00:54:14;;;;;;;17.05;6.95;;;;;;;-2.17;100.00;99416.47;5118785;28;20043;-75
2022/01/08 00:56:58;;;;;;;18.23;7.25;;;;;;;-2.14;100.00;99426.78;5089401;28;20050;-75
2022/01/08 00:59:43;;;;;;;18.80;8.80;;;;;;;-2.20;100.00;99424.97;5118627;28;20036;-75
2022/01/08 01:02:27;;;;;;;20.00;7.68;;;;;;;-2.14;100.00;99426.78;5103632;28;20035;-75
2022/01/08 01:05:11;;;;;;;17.30;8.02;;;;;;;-2.14;100.00;99430.22;5103540;28;20059;-75
2022/01/08 01:07:56;;;;;;;16.33;8.02;;;;;;;-2.09;100.00;99434.56;5118535;28;20040;-75
2022/01/08 01:10:40;;;;;;;13.25;5.75;;;;;;;-2.23;100.00;99412.06;5086428;28;20130;-75
2022/01/08 01:13:25;;;;;;;12.77;6.93;;;;;;;-2.21;100.00;99409.50;5103376;28;20043;-75
2022/01/08 01:16:10;;;;;;;14.07;7.15;;;;;;;-2.24;100.00;99399.19;5103424;28;20416;-75
2022/01/08 01:18:55;;;;;;;12.82;6.05;;;;;;;-2.22;100.00;99420.63;5105648;27;20368;-75
2022/01/08 01:21:40;;;;;;;14.98;5.80;;;;;;;-2.16;100.00;99420.75;5118306;28;20067;-75
2022/01/08 01:24:26;;;;;;;18.92;7.20;;;;;;;-2.17;100.00;99411.34;5103212;28;20039;-75
2022/01/08 01:28:03;;;;;;;15.40;6.55;;;;;;;-2.14;100.00;99407.13;5088808;28;20043;-75
2022/01/08 01:30:18;;;;;;;11.43;5.43;;;;;;;-2.22;100.00;99392.41;5084981;28;20100;-75
2022/01/08 01:48:39;;;;;;;9.65;5.00;;;;;;;-2.17;100.00;99391.66;5101968;28;20058;-75
2022/01/08 01:51:24;;;;;;;15.85;5.93;;;;;;;-2.08;100.00;99395.22;5102254;28;20062;-75
2022/01/08 01:54:09;;;;;;;10.82;5.60;;;;;;;-2.15;100.00;99391.69;5088360;28;20043;-75
2022/01/08 01:56:55;;;;;;;12.18;5.07;;;;;;;-2.13;100.00;99390.03;5102464;28;20032;-74
2022/01/08 01:59:40;;;;;;;15.02;6.80;;;;;;;-2.21;100.00;99383.84;5102416;28;20047;-74
2022/01/08 02:02:24;;;;;;;22.98;9.48;;;;;;;-2.14;100.00;99388.28;5131473;27;20039;-75
2022/01/08 02:05:09;;;;;;;25.80;8.95;;;;;;;-2.24;100.00;99387.25;5102612;28;20035;-75
2022/01/08 02:07:55;;;;;;;33.50;10.13;;;;;;;-2.16;100.00;99385.69;5102270;28;20047;-75
2022/01/08 02:10:40;;;;;;;21.95;10.50;;;;;;;-2.13;100.00;99383.19;5102310;28;20347;-75
2022/01/08 02:13:27;;;;;;;35.88;11.90;;;;;;;-2.08;100.00;99385.84;5085217;28;20154;-75
2022/01/08 02:16:17;;;;;;;24.70;9.32;;;;;;;-2.05;100.00;99382.44;5117197;28;20431;-75
2022/01/08 02:19:01;;;;;;;17.38;6.78;;;;;;;-2.15;100.00;99373.72;5116296;28;20046;-75
2022/01/08 02:21:51;;;;;;;36.03;11.65;;;;;;;-2.10;100.00;99384.09;5087766;28;20039;-74
2022/01/08 02:24:36;;;;;;;37.50;14.27;;;;;;;-2.07;100.00;99382.44;5117142;28;20047;-75
2022/01/08 02:27:21;;;;;;;46.60;15.57;;;;;;;-2.20;100.00;99357.38;5101989;28;20031;-75
2022/01/08 02:30:06;;;;;;;25.23;10.98;;;;;;;-2.17;100.00;99367.72;5116961;28;20039;-75
2022/01/08 02:32:50;;;;;;;20.25;9.50;;;;;;;-2.18;100.00;99364.28;5101764;28;20043;-75
2022/01/08 02:35:35;;;;;;;26.45;9.98;;;;;;;-2.14;100.00;99355.78;5116231;28;20063;-75
2022/01/08 02:38:20;;;;;;;13.70;6.82;;;;;;;-2.00;100.00;99374.00;5087793;28;20451;-75
2022/01/08 02:41:06;;;;;;;16.05;7.22;;;;;;;-1.98;100.00;99368.88;5087377;28;20036;-75
2022/01/08 02:43:53;;;;;;;11.55;5.47;;;;;;;-2.00;100.00;99353.47;5101642;28;20490;-75
2022/01/08 02:46:39;;;;;;;12.88;6.10;;;;;;;-1.89;100.00;99362.22;5100952;28;20062;-75
2022/01/08 02:49:24;;;;;;;8.73;4.60;;;;;;;-1.99;100.00;99357.75;5101627;28;20040;-75
2022/01/08 02:52:09;;;;;;;12.07;5.63;;;;;;;-1.94;100.00;99342.47;5101493;28;20059;-75
2022/01/08 02:54:53;;;;;;;11.23;5.18;;;;;;;-1.94;100.00;99347.59;5116592;28;20052;-75
2022/01/08 02:57:37;;;;;;;9.45;5.00;;;;;;;-1.92;100.00;99349.34;5101515;28;20429;-75
2022/01/08 03:00:22;;;;;;;11.48;4.47;;;;;;;-1.99;100.00;99331.22;5087200;28;20046;-75
2022/01/08 03:03:06;;;;;;;10.57;5.45;;;;;;;-1.79;100.00;99354.69;5087204;28;20427;-75
2022/01/08 03:05:51;;;;;;;11.70;5.43;;;;;;;-1.75;100.00;99356.47;5116419;28;20044;-75
2022/01/08 03:08:35;;;;;;;45.53;14.07;;;;;;;-1.84;100.00;99349.47;5116415;28;20039;-75
2022/01/08 03:11:20;;;;;;;40.35;13.43;;;;;;;-1.74;100.00;99356.50;5116436;28;20363;-75
2022/01/08 03:14:07;;;;;;;47.22;15.25;;;;;;;-1.76;100.00;99358.16;5087204;28;20050;-75
2022/01/08 03:16:52;;;;;;;57.42;16.83;;;;;;;-1.69;100.00;99347.19;5101351;28;20410;-75
2022/01/08 03:19:38;;;;;;;65.53;17.17;;;;;;;-1.70;100.00;99334.31;5116401;28;20055;-75
2022/01/08 03:22:23;;;;;;;60.08;16.88;;;;;;;-1.60;100.00;99343.03;5087137;28;20040;-75
2022/01/08 03:25:08;;;;;;;39.88;13.52;;;;;;;-1.60;100.00;99338.75;5101173;28;20097;-75
2022/01/08 03:27:53;;;;;;;40.33;11.43;;;;;;;-1.53;100.00;99337.13;5101196;28;20035;-75
2022/01/08 03:30:38;;;;;;;34.70;11.13;;;;;;;-1.51;100.00;99338.91;5101225;28;20043;-75
2022/01/08 03:33:23;;;;;;;44.33;13.63;;;;;;;-1.75;100.00;99321.41;5101181;28;20043;-75
2022/01/08 03:36:07;;;;;;;33.63;11.48;;;;;;;-1.55;100.00;99326.00;5101174;28;20044;-75
2022/01/08 03:38:53;;;;;;;77.40;22.17;;;;;;;-1.54;100.00;99333.72;5101130;28;20047;-73
2022/01/08 03:41:37;;;;;;;33.38;11.25;;;;;;;-1.56;100.00;99337.09;5116021;28;20040;-75
2022/01/08 03:44:22;;;;;;;21.70;7.43;;;;;;;-1.55;100.00;99326.84;5070156;28;20055;-75
2022/01/08 03:50:26;;;;;;;20.13;7.05;;;;;;;-1.52;100.00;99332.03;5079855;28;20052;-75
2022/01/08 03:53:10;;;;;;;15.68;5.88;;;;;;;-1.48;100.00;99333.81;5116010;28;20048;-75
2022/01/08 03:55:55;;;;;;;13.07;5.75;;;;;;;-1.51;100.00;99323.47;5100903;28;20110;-74
2022/01/08 03:58:39;;;;;;;11.60;5.78;;;;;;;-1.50;100.00;99322.63;5117512;28;20044;-75
2022/01/08 04:01:24;;;;;;;10.32;4.60;;;;;;;-1.48;100.00;99314.97;5104721;28;20039;-75
2022/01/08 04:04:09;;;;;;;22.33;8.15;;;;;;;-1.42;100.00;99318.50;5104811;28;20124;-75
2022/01/08 04:06:54;;;;;;;23.67;7.78;;;;;;;-1.44;100.00;99307.31;5087766;28;20059;-75
2022/01/08 04:09:38;;;;;;;48.42;17.08;;;;;;;-1.50;100.00;99302.06;5104788;28;20093;-75
2022/01/08 04:12:34;;;;;;;43.45;13.85;;;;;;;-1.36;100.00;99322.00;5133399;27;20035;-75
2022/01/08 04:15:41;;;;;;;54.40;16.40;;;;;;;-1.25;100.00;99318.72;5090115;28;20348;-74
2022/01/08 04:18:23;;;;;;;94.22;25.35;;;;;;;-1.30;100.00;99319.50;5104388;28;20050;-75
2022/01/08 04:23:57;;;;;;;72.97;20.55;;;;;;;-1.21;100.00;99320.50;5119408;28;20058;-75
2022/01/08 04:26:42;;;;;;;71.80;19.77;;;;;;;-1.21;100.00;99317.94;5106574;27;20058;-75
2022/01/08 04:29:26;;;;;;;55.42;17.73;;;;;;;-1.23;100.00;99308.50;5104474;28;20040;-75
2022/01/08 04:32:10;;;;;;;40.17;14.27;;;;;;;-1.22;100.00;99312.78;5104394;28;20048;-75
2022/01/08 04:34:55;;;;;;;25.75;11.98;;;;;;;-1.18;100.00;99314.53;5132941;27;20047;-75
2022/01/08 04:37:39;;;;;;;26.13;11.65;;;;;;;-1.19;100.00;99316.25;5119157;28;20419;-74
2022/01/08 04:40:24;;;;;;;32.95;14.70;;;;;;;-1.14;100.00;99325.72;5119047;28;20044;-74
2022/01/08 04:43:09;;;;;;;56.28;21.45;;;;;;;-1.28;100.00;99298.13;5104070;28;20126;-75
2022/01/08 04:45:54;;;;;;;50.40;18.88;;;;;;;-1.19;100.00;99302.53;5119024;28;20044;-75
2022/01/08 04:48:39;;;;;;;49.85;18.98;;;;;;;-1.20;100.00;99293.97;5119040;28;20047;-75
2022/01/08 04:51:23;;;;;;;50.70;17.85;;;;;;;-1.15;100.00;99308.59;5118651;28;20352;-75
2022/01/08 04:54:08;;;;;;;42.50;16.33;;;;;;;-1.25;100.00;99274.19;5103821;28;20040;-75
2022/01/08 04:56:53;;;;;;;42.40;18.80;;;;;;;-1.22;100.00;99294.78;5118744;28;20054;-75
2022/01/08 04:59:37;;;;;;;26.58;10.82;;;;;;;-1.18;100.00;99296.56;5118778;28;20048;-75
2022/01/08 05:02:22;;;;;;;36.08;13.52;;;;;;;-1.32;100.00;99288.66;5103658;28;20325;-75
2022/01/08 05:05:06;;;;;;;40.17;15.02;;;;;;;-1.26;100.00;99293.03;5118903;28;20036;-75
2022/01/08 05:07:52;;;;;;;26.90;12.00;;;;;;;-1.24;100.00;99292.19;5117785;28;20031;-75
2022/01/08 05:10:36;;;;;;;30.80;12.75;;;;;;;-1.27;100.00;99297.31;5088437;28;20040;-75
2022/01/08 05:13:21;;;;;;;36.55;14.93;;;;;;;-1.23;100.00;99293.06;5103388;28;20044;-75
2022/01/08 05:16:06;;;;;;;27.10;11.98;;;;;;;-1.28;100.00;99285.28;5103399;28;20420;-75
2022/01/08 05:18:53;;;;;;;29.38;10.60;;;;;;;-1.22;100.00;99289.66;5103363;28;20338;-75
2022/01/08 05:21:39;;;;;;;20.85;9.02;;;;;;;-1.16;100.00;99294.03;5118403;28;20039;-74
2022/01/08 05:24:24;;;;;;;20.25;9.70;;;;;;;-1.21;100.00;99292.22;5086316;28;20112;-75
2022/01/08 05:27:10;;;;;;;16.20;8.30;;;;;;;-1.26;100.00;99272.47;5132027;27;20043;-75
2022/01/08 05:29:55;;;;;;;23.95;9.73;;;;;;;-1.16;100.00;99289.75;5118088;28;20040;-75
2022/01/08 05:32:39;;;;;;;25.70;11.40;;;;;;;-1.31;100.00;99274.09;5118080;28;20036;-75
2022/01/08 05:35:25;;;;;;;24.50;12.00;;;;;;;-1.31;100.00;99277.53;5103090;28;20420;-75
2022/01/08 05:38:10;;;;;;;22.35;11.10;;;;;;;-1.14;100.00;99293.16;5118247;28;20036;-75
2022/01/08 05:40:54;;;;;;;25.85;9.88;;;;;;;-1.08;100.00;99298.41;5102710;28;20049;-75
2022/01/08 05:43:38;;;;;;;17.92;8.27;;;;;;;-1.20;100.00;99278.56;5117891;28;20050;-75
2022/01/08 05:46:23;;;;;;;21.42;8.95;;;;;;;-1.16;100.00;99278.59;5117844;28;20451;-75
2022/01/08 05:49:07;;;;;;;25.05;10.07;;;;;;;-1.16;100.00;99297.44;5099752;28;20368;-75
2022/01/08 05:51:51;;;;;;;20.60;10.20;;;;;;;-1.07;100.00;99281.28;5088247;28;20071;-75
2022/01/08 05:54:36;;;;;;;46.53;18.63;;;;;;;-1.09;100.00;99276.13;5088396;28;20036;-75
2022/01/08 05:57:21;;;;;;;88.25;31.42;;;;;;;-1.09;100.00;99264.97;5117606;28;20055;-75
2022/01/08 06:00:07;;;;;;;127.95;48.97;;;;;;;-1.15;100.00;99252.03;5102271;28;20122;-75
2022/01/08 06:02:54;;;;;;;118.57;44.90;;;;;;;-1.20;100.00;99272.56;5119560;27;20421;-75
2022/01/08 06:05:38;;;;;;;44.30;18.10;;;;;;;-1.19;100.00;99280.28;5082112;28;20491;-75
2022/01/08 06:08:23;;;;;;;22.00;10.88;;;;;;;-1.15;100.00;99270.03;5067982;28;20502;-75
2022/01/08 06:11:07;;;;;;;22.13;9.63;;;;;;;-1.09;100.00;99280.41;5067883;28;20060;-75
2022/01/08 06:13:52;;;;;;;26.05;12.02;;;;;;;-1.09;100.00;99282.97;5081905;28;20040;-75
2022/01/08 06:16:38;;;;;;;29.90;13.80;;;;;;;-1.08;100.00;99282.97;5067876;28;20047;-75
2022/01/08 06:19:22;;;;;;;27.75;12.38;;;;;;;-1.10;100.00;99292.41;5065152;28;20117;-75
2022/01/08 06:22:06;;;;;;;17.25;9.80;;;;;;;-1.07;100.00;99286.41;5080961;28;20424;-75
2022/01/08 06:24:51;;;;;;;26.90;11.40;;;;;;;-1.09;100.00;99288.97;5067588;28;20058;-75
2022/01/08 06:27:35;;;;;;;21.13;10.18;;;;;;;-1.08;100.00;99287.25;5096756;28;20036;-75
2022/01/08 06:30:19;;;;;;;22.80;10.73;;;;;;;-1.01;100.00;99292.53;5081617;28;20040;-75
2022/01/08 06:33:04;;;;;;;20.58;9.38;;;;;;;-1.02;100.00;99288.22;5096529;28;20119;-75
2022/01/08 06:35:51;;;;;;;19.38;10.60;;;;;;;-1.00;100.00;99280.53;5081511;28;20048;-74
2022/01/08 06:38:35;;;;;;;20.20;10.20;;;;;;;-1.01;100.00;99282.25;5067406;28;20047;-75
2022/01/08 06:41:21;;;;;;;24.40;11.30;;;;;;;-0.92;100.00;99289.19;5067440;28;20101;-75
2022/01/08 06:44:05;;;;;;;36.40;16.73;;;;;;;-0.90;100.00;99292.66;5096378;28;20043;-75
2022/01/08 06:46:50;;;;;;;38.83;17.67;;;;;;;-0.88;100.00;99297.81;5067299;28;20449;-75
2022/01/08 06:49:34;;;;;;;36.55;16.23;;;;;;;-0.80;100.00;99306.50;5096354;28;20040;-75
2022/01/08 06:52:19;;;;;;;37.33;17.67;;;;;;;-0.80;100.00;99293.63;5067111;28;20052;-75
2022/01/08 06:55:04;;;;;;;27.95;12.98;;;;;;;-0.62;100.00;99309.28;5081145;28;20123;-75
2022/01/08 06:57:49;;;;;;;25.50;12.15;;;;;;;-0.64;100.00;99310.13;5096233;28;20101;-75
2022/01/08 07:00:33;;;;;;;35.70;14.50;;;;;;;-0.72;100.00;99286.84;5095331;28;20059;-75
2022/01/08 07:03:18;;;;;;;63.85;25.17;;;;;;;-0.74;100.00;99280.84;5080994;28;20086;-75
2022/01/08 07:06:03;;;;;;;57.60;23.27;;;;;;;-0.80;100.00;99291.06;5095635;28;20072;-75
2022/01/08 07:08:48;;;;;;;37.47;18.92;;;;;;;-0.69;100.00;99302.31;5095876;28;20056;-75
2022/01/08 07:11:33;;;;;;;34.92;15.82;;;;;;;-0.63;100.00;99315.25;5095853;28;20084;-75
2022/01/08 07:14:17;;;;;;;28.55;16.02;;;;;;;-0.55;100.00;99317.94;5095465;28;20044;-75
2022/01/08 07:17:02;;;;;;;31.92;17.58;;;;;;;-0.62;100.00;99306.69;5096585;28;20115;-75
2022/01/08 07:19:46;;;;;;;25.52;13.20;;;;;;;-0.47;100.00;99321.47;5081722;28;20044;-75
2022/01/08 07:22:30;;;;;;;27.60;13.77;;;;;;;-0.45;100.00;99311.19;5081630;28;20413;-75
2022/01/08 07:25:15;;;;;;;25.70;14.43;;;;;;;-0.52;100.00;99299.94;5096049;28;20043;-75
2022/01/08 07:27:59;;;;;;;23.98;13.02;;;;;;;-0.52;100.00;99297.38;5081254;28;20044;-75
2022/01/08 07:30:45;;;;;;;29.15;16.83;;;;;;;-0.38;100.00;99313.84;5095237;28;20398;-75
2022/01/08 07:33:29;;;;;;;29.45;15.90;;;;;;;-0.40;100.00;99312.09;5083679;28;20410;-75
2022/01/08 07:36:13;;;;;;;30.33;17.10;;;;;;;-0.36;100.00;99317.28;5100431;28;20040;-75
2022/01/08 07:38:58;;;;;;;37.13;19.20;;;;;;;-0.37;100.00;99294.13;5071371;28;20036;-75
2022/01/08 07:41:42;;;;;;;48.42;22.23;;;;;;;-0.27;100.00;99311.38;5100045;28;20093;-75
2022/01/08 07:44:26;;;;;;;52.97;22.95;;;;;;;-0.17;100.00;99315.78;5084900;28;20105;-75
2022/01/08 07:47:11;;;;;;;83.43;34.13;;;;;;;-0.17;100.00;99313.19;5099820;28;20344;-75
2022/01/08 07:49:55;;;;;;;55.03;26.85;;;;;;;-0.16;100.00;99319.22;5084704;28;20044;-75
2022/01/08 07:52:40;;;;;;;38.83;23.55;;;;;;;-0.14;100.00;99326.09;5070644;28;20048;-75
2022/01/08 07:55:24;;;;;;;35.10;20.05;;;;;;;-0.09;100.00;99327.03;5085146;28;20187;-75
2022/01/08 07:58:08;;;;;;;28.85;16.38;;;;;;;-0.04;100.00;99332.22;5084642;28;20051;-75
2022/01/08 08:00:53;;;;;;;23.05;13.85;;;;;;;0.01;100.00;99314.25;5084553;28;20044;-75
2022/01/08 08:03:38;;;;;;;23.52;13.60;;;;;;;0.06;100.00;99316.00;5099486;28;20036;-75
2022/01/08 08:06:23;;;;;;;77.95;44.40;;;;;;;0.02;100.00;99305.66;5113276;28;20040;-75
2022/01/08 08:09:07;;;;;;;43.17;26.63;;;;;;;0.06;100.00;99305.69;5070592;28;20098;-75
2022/01/08 08:11:51;;;;;;;64.13;36.45;;;;;;;0.19;100.00;99316.97;5099836;28;20044;-75
2022/01/08 08:14:35;;;;;;;89.22;51.78;;;;;;;0.15;100.00;99321.25;5084845;28;20090;-75
2022/01/08 08:17:19;;;;;;;72.72;43.28;;;;;;;0.26;100.00;99317.88;5084195;28;20036;-75
2022/01/08 08:20:05;;;;;;;30.95;17.77;;;;;;;0.27;100.00;99317.91;5070539;28;20048;-75
2022/01/08 08:22:49;;;;;;;24.75;14.23;;;;;;;0.32;100.00;99318.81;5070405;28;20032;-75
2022/01/08 08:25:34;;;;;;;27.55;14.88;;;;;;;0.37;100.00;99317.13;5084015;28;20356;-75
2022/01/08 08:28:18;;;;;;;33.75;15.85;;;;;;;0.37;100.00;99309.41;5084489;28;20048;-75
2022/01/08 08:31:03;;;;;;;35.53;18.80;;;;;;;0.47;100.00;99315.50;5084421;28;20093;-75
2022/01/08 08:33:47;;;;;;;25.80;15.27;;;;;;;0.47;100.00;99320.66;5083844;28;20421;-75
2022/01/08 08:36:31;;;;;;;59.20;26.33;;;;;;;0.53;100.00;99312.97;5084371;28;20040;-75
2022/01/08 08:39:15;;;;;;;55.00;27.25;;;;;;;0.62;100.00;99312.19;5099269;28;20032;-75
2022/01/08 08:42:00;;;;;;;38.63;21.48;;;;;;;0.54;100.00;99306.97;5086008;28;20352;-75
2022/01/08 08:44:44;;;;;;;35.22;17.52;;;;;;;0.48;100.00;99304.31;5082684;28;20181;-75
2022/01/08 08:47:31;;;;;;;29.38;16.80;;;;;;;0.47;100.00;99295.75;5099132;28;20309;-75
2022/01/08 08:50:16;;;;;;;29.63;16.35;;;;;;;0.55;100.00;99318.13;5069874;28;20043;-75
2022/01/08 08:53:00;;;;;;;45.90;22.48;;;;;;;0.57;100.00;99309.56;5097482;28;20410;-75
2022/01/08 08:55:45;;;;;;;44.38;26.10;;;;;;;0.63;100.00;99306.16;5069755;28;20040;-75
2022/01/08 08:58:29;;;;;;;57.33;28.27;;;;;;;0.63;100.00;99299.28;5069294;28;20051;-75
2022/01/08 09:01:14;;;;;;;63.17;29.92;;;;;;;0.68;100.00;99309.63;5069117;28;20059;-75
2022/01/08 09:03:58;;;;;;;44.65;24.52;;;;;;;0.71;100.00;99307.06;5052425;28;20109;-75
2022/01/08 09:06:42;;;;;;;37.47;21.35;;;;;;;0.74;100.00;99304.50;5083412;28;20089;-75
2022/01/08 09:09:27;;;;;;;85.85;43.67;;;;;;;0.64;100.00;99305.31;5098336;28;20044;-75
2022/01/08 09:12:15;;;;;;;87.90;41.85;;;;;;;0.62;100.00;99292.41;5069462;28;20051;-75
2022/01/08 09:14:59;;;;;;;99.20;48.63;;;;;;;0.66;100.00;99307.06;5069400;28;20036;-75
2022/01/08 09:17:43;;;;;;;114.55;52.28;;;;;;;0.61;100.00;99298.41;5097612;28;20051;-75
2022/01/08 09:20:29;;;;;;;66.32;28.15;;;;;;;0.52;100.00;99287.19;5098092;28;20145;-76
2022/01/08 09:23:14;;;;;;;61.42;23.92;;;;;;;0.71;100.00;99304.50;5097989;28;20389;-76
2022/01/08 09:25:59;;;;;;;53.47;20.33;;;;;;;0.75;100.00;99302.78;5068738;28;20448;-75
2022/01/08 09:28:43;;;;;;;50.58;21.42;;;;;;;0.68;100.00;99305.34;5094400;28;20109;-76
2022/01/08 09:31:28;;;;;;;38.22;17.90;;;;;;;0.79;100.00;99305.41;5097183;28;20051;-75
2022/01/08 09:34:12;;;;;;;41.80;16.13;;;;;;;0.79;100.00;99302.84;5097064;28;20048;-75
2022/01/08 09:36:58;;;;;;;35.50;16.45;;;;;;;0.76;100.00;99304.53;5082781;28;20040;-75
2022/01/08 09:39:42;;;;;;;28.02;13.80;;;;;;;0.80;100.00;99301.13;5097542;28;20043;-75
2022/01/08 09:42:27;;;;;;;24.40;11.88;;;;;;;0.81;100.00;99285.63;5068337;28;20044;-75
2022/01/08 09:45:12;;;;;;;23.98;10.88;;;;;;;0.88;100.00;99308.06;5082923;28;20127;-76
2022/01/08 09:47:57;;;;;;;28.10;12.02;;;;;;;0.79;100.00;99300.25;5112178;28;20044;-76
2022/01/08 09:50:43;;;;;;;26.38;11.88;;;;;;;0.85;100.00;99292.56;5082773;28;20058;-76
2022/01/08 09:53:27;;;;;;;30.83;13.65;;;;;;;0.95;100.00;99301.22;5098699;28;20489;-75
2022/01/08 09:56:12;;;;;;;18.70;11.57;;;;;;;0.98;100.00;99300.38;5111153;28;20040;-76
2022/01/08 09:58:57;;;;;;;27.45;18.45;;;;;;;0.95;100.00;99302.94;5097117;28;20044;-75
2022/01/08 10:01:42;;;;;;;48.63;27.73;;;;;;;1.07;100.00;99313.31;5082464;28;20093;-76
2022/01/08 10:04:35;;;;;;;33.33;20.23;;;;;;;1.06;100.00;99290.94;5097543;28;20044;-75
2022/01/08 10:07:26;;;;;;;27.60;14.40;;;;;;;1.19;100.00;99295.31;5082247;28;20056;-75
2022/01/08 10:10:17;;;;;;;64.10;27.15;;;;;;;1.26;100.00;99309.94;5082501;28;20036;-75
2022/01/08 10:13:01;;;;;;;113.45;42.03;;;;;;;1.17;100.00;99282.41;5097151;28;20056;-75
2022/01/08 10:18:49;;;;;;;91.60;35.67;;;;;;;1.16;100.00;99296.16;5096509;28;20041;-75
2022/01/08 10:21:34;;;;;;;41.55;17.75;;;;;;;1.23;100.00;99304.78;5067428;28;20044;-75
2022/01/08 10:24:26;;;;;;;161.48;68.15;;;;;;;1.19;100.00;99300.47;5079813;28;20078;-75
2022/01/08 10:27:11;;;;;;;70.10;36.25;;;;;;;1.36;100.00;99306.56;5079755;28;20337;-75
2022/01/08 10:29:55;;;;;;;40.33;24.17;;;;;;;1.31;100.00;99307.41;5079785;28;20599;-75
2022/01/08 10:32:55;;;;;;;63.30;29.10;;;;;;;1.41;100.00;99304.00;5079839;28;20108;-75
2022/01/08 10:35:46;;;;;;;69.28;29.77;;;;;;;1.49;100.00;99294.56;5094837;28;20105;-75
2022/01/08 10:38:31;;;;;;;37.53;21.92;;;;;;;1.47;100.00;99275.66;5095029;28;20055;-75
2022/01/08 10:41:16;;;;;;;106.25;50.85;;;;;;;1.68;100.00;99292.03;5079629;28;20321;-75
2022/01/08 10:44:10;;;;;;;123.40;58.92;;;;;;;1.71;100.00;99298.06;5108207;28;20085;-75
2022/01/08 10:47:03;;;;;;;186.55;95.78;;;;;;;1.72;100.00;99291.19;5079559;28;20044;-75
2022/01/08 10:50:00;;;;;;;65.05;40.70;;;;;;;1.72;100.00;99280.84;5079564;28;20036;-75
2022/01/08 10:52:46;;;;;;;36.97;26.38;;;;;;;1.77;100.00;99284.31;5079167;28;20075;-75
2022/01/08 10:55:33;;;;;;;22.73;13.32;;;;;;;1.78;100.00;99270.53;5067350;28;20044;-75
2022/01/08 10:58:41;;;;;;;19.15;10.98;;;;;;;1.90;100.00;99278.31;5096715;28;20125;-75
2022/01/08 11:02:02;;;;;;;20.02;10.50;;;;;;;2.07;100.00;99276.59;5096803;28;20036;-75
2022/01/08 11:04:52;;;;;;;21.85;9.75;;;;;;;2.10;100.00;99274.03;5081309;28;20040;-75
2022/01/08 11:07:40;;;;;;;23.92;11.18;;;;;;;2.15;100.00;99280.94;5081063;28;20059;-75
2022/01/08 11:10:25;;;;;;;19.98;11.52;;;;;;;2.27;100.00;99266.25;5067828;28;20036;-75
2022/01/08 11:13:14;;;;;;;22.52;11.50;;;;;;;2.32;100.00;99261.97;5067650;28;20051;-75
2022/01/08 11:15:58;;;;;;;20.33;12.20;;;;;;;2.33;100.00;99262.81;5098012;28;20064;-75
2022/01/08 11:18:43;;;;;;;23.10;12.50;;;;;;;2.36;100.00;99249.03;5096369;28;20040;-75
2022/01/08 11:21:30;;;;;;;32.03;15.52;;;;;;;2.41;100.00;99249.91;5081125;28;20474;-75
2022/01/08 11:24:17;;;;;;;28.52;12.98;;;;;;;2.40;100.00;99261.97;5081316;28;20046;-75
2022/01/08 11:27:07;;;;;;;27.00;13.10;;;;;;;2.43;100.00;99263.69;5066854;28;20055;-75
2022/01/08 11:29:58;;;;;;;26.35;13.35;;;;;;;2.24;100.00;99224.94;5112260;28;20048;-75
2022/01/08 11:32:44;;;;;;;78.03;42.88;;;;;;;2.33;100.00;99245.59;5081069;28;20499;-75
2022/01/08 11:35:31;;;;;;;56.45;33.28;;;;;;;2.37;100.00;99243.88;5095823;28;20075;-75
2022/01/08 11:38:20;;;;;;;55.63;33.90;;;;;;;2.45;100.00;99241.28;5095819;28;20055;-75
2022/01/08 11:41:05;;;;;;;28.23;15.32;;;;;;;2.32;100.00;99232.69;5095033;28;20040;-76
2022/01/08 11:43:50;;;;;;;29.38;17.17;;;;;;;2.48;100.00;99239.56;5079022;28;20063;-76
2022/01/08 11:46:37;;;;;;;40.85;28.00;;;;;;;2.44;100.00;99236.97;5094385;28;20325;-75
2022/01/08 11:49:22;;;;;;;38.83;23.83;;;;;;;2.53;100.00;99245.56;5079876;28;20048;-75
2022/01/08 11:52:33;;;;;;;30.80;16.88;;;;;;;2.51;100.00;99236.97;5079913;28;20070;-76
2022/01/08 11:55:33;;;;;;;37.47;18.55;;;;;;;2.52;100.00;99232.66;5095055;28;20360;-76
2022/01/08 11:58:26;;;;;;;30.23;17.02;;;;;;;2.55;100.00;99245.59;5095275;28;20051;-76
2022/01/08 12:01:14;;;;;;;27.95;15.07;;;;;;;2.46;100.00;99235.25;5079675;28;20048;-76
2022/01/08 12:03:59;;;;;;;30.67;16.83;;;;;;;2.51;100.00;99236.97;5093795;28;20391;-76
2022/01/08 12:06:43;;;;;;;30.20;15.48;;;;;;;2.36;100.00;99216.31;5093781;28;20048;-76
2022/01/08 12:09:29;;;;;;;34.85;18.45;;;;;;;2.32;100.00;99188.75;5078763;28;20105;-76
2022/01/08 12:12:14;;;;;;;23.80;15.48;;;;;;;2.75;100.00;99236.03;5079403;28;20040;-76
2022/01/08 12:14:59;;;;;;;39.80;22.80;;;;;;;2.57;100.00;99185.25;5107950;28;20471;-76
2022/01/08 12:17:53;;;;;;;31.13;20.00;;;;;;;2.75;100.00;99210.19;5081058;28;20040;-76
2022/01/08 12:20:41;;;;;;;30.08;18.88;;;;;;;2.75;100.00;99207.59;5113009;28;20088;-76
2022/01/08 12:23:26;;;;;;;41.25;26.95;;;;;;;2.71;100.00;99203.31;5099429;28;20089;-76
2022/01/08 12:26:20;;;;;;;27.92;15.57;;;;;;;2.70;100.00;99200.75;5099188;28;20036;-76
2022/01/08 12:29:05;;;;;;;30.80;14.75;;;;;;;2.60;100.00;99196.44;5099448;28;20062;-76
2022/01/08 12:31:50;;;;;;;25.77;16.15;;;;;;;2.31;100.00;99154.28;5099655;28;20048;-76
2022/01/08 12:34:38;;;;;;;23.35;14.18;;;;;;;2.47;100.00;99168.06;5099390;28;20040;-76
2022/01/08 12:37:35;;;;;;;26.02;13.85;;;;;;;2.46;100.00;99163.72;5098256;28;20078;-75
2022/01/08 12:40:56;;;;;;;23.42;11.77;;;;;;;2.42;100.00;99166.34;5099087;28;20127;-76
2022/01/08 12:43:40;;;;;;;22.98;12.45;;;;;;;2.28;100.00;99154.31;5031772;28;20088;-76
2022/01/08 12:46:25;;;;;;;21.90;11.98;;;;;;;2.28;100.00;99162.06;5098805;28;20065;-75
2022/01/08 12:49:12;;;;;;;23.65;13.15;;;;;;;2.28;100.00;99159.47;5098764;28;20444;-76
2022/01/08 12:52:07;;;;;;;24.55;13.18;;;;;;;2.36;100.00;99164.59;5098506;28;20441;-76
2022/01/08 12:54:51;;;;;;;23.17;13.00;;;;;;;2.30;100.00;99129.28;5098559;28;20052;-76
2022/01/08 12:57:36;;;;;;;21.52;13.40;;;;;;;2.50;100.00;99161.97;5084221;28;20036;-76
2022/01/08 13:00:21;;;;;;;22.50;13.18;;;;;;;2.36;100.00;99137.91;5098604;28;20043;-76
2022/01/08 13:03:05;;;;;;;20.08;13.38;;;;;;;2.26;100.00;99142.25;5099042;28;20424;-76
2022/01/08 13:05:51;;;;;;;36.22;22.48;;;;;;;2.54;100.00;99169.75;5097720;28;20070;-76